Friday, January 18, 2019, 3:07 AM EST
Back to Local

KWST, Westerly State Airport

Location: Westerly, RI, United States Lat: 41.35
Local Time: 3:07 AM EST ( 8:07 GMT) Lon: -71.8
Time Zone: US/Eastern Elev: 82 ft

Show me the last for .
Show Coded

Time T Td Feel RH Dir Speed Gust Alt SLP Vis Weather Sky Remarks
2019-01-18 02:53 30 19 22 63 40° 8 - 30.21 30.21 10 FEW060 OVC080 None
2019-01-18 01:53 30 18 23 60 20° 7 - 30.24 30.24 10 BKN035 OVC055 None
2019-01-18 00:53 33 21 - 60 - Calm - 30.25 30.25 10 BKN034 BKN060 OVC100 6-hr Min Temp (1am): 28.0°F
6-hr Max Temp (1am): 35.1°F
2019-01-17 23:53 32 19 26 58 110° 7 - 30.27 30.27 10 OVC110 24-hr Min Temp (12am): 24.1°F
24-hr Max Temp (12am): 35.1°F
2019-01-17 22:53 33 19 27 55 130° 7 - 30.30 30.30 10 FEW033 None
2019-01-17 21:53 28 15 24 57 360° 3 - 30.32 30.32 10 SCT034 None
2019-01-17 20:53 29 15 - 55 - Calm - 30.31 30.31 10 FEW110 None
2019-01-17 19:53 32 13 29 44 100° 3 - 30.33 30.33 10 FEW110 None
2019-01-17 18:53 31 11 25 42 140° 6 - 30.34 30.34 10 CLR 6-hr Min Temp (7pm): 30.0°F
6-hr Max Temp (7pm): 35.1°F
2019-01-17 17:53 31 9 27 39 140° 3 - 30.33 30.33 10 FEW120 None
2019-01-17 16:53 30 5 26 33 130° 3 - 30.33 30.33 10 CLR None
2019-01-17 15:53 32 6 26 32 150° 6 - 30.34 30.34 10 CLR None
2019-01-17 14:53 32 4 26 29 140° 7 - 30.34 30.34 10 CLR None
2019-01-17 13:53 35 -8 32 14 270° 3 - 30.35 30.35 10 CLR None
2019-01-17 12:53 33 -8 - 16 - Calm - 30.36 30.36 10 CLR 6-hr Min Temp (1pm): 24.1°F
6-hr Max Temp (1pm): 33.1°F
2019-01-17 11:53 31 -6 24 19 10° 7 - 30.39 30.39 10 CLR None
2019-01-17 10:53 29 -6 20 21 350° 9 - 30.41 30.41 10 CLR None
2019-01-17 09:53 27 -4 17 25 340° 10 - 30.42 30.42 10 CLR None
2019-01-17 08:53 26 0 18 31 330° 7 - 30.40 30.40 10 CLR None
2019-01-17 07:53 25 4 17 39 340° 7 - 30.37 30.37 10 CLR None
2019-01-17 06:53 25 5 21 41 310° 3 - 30.35 30.35 10 CLR 6-hr Min Temp (7am): 25.0°F
6-hr Max Temp (7am): 32.0°F
2019-01-17 05:53 26 6 17 41 330° 9 - 30.32 30.32 10 CLR None
2019-01-17 04:53 27 11 19 50 330° 8 - 30.29 30.29 10 CLR None
2019-01-17 03:53 28 13 23 52 Variable 5 - 30.28 30.28 10 CLR None

Support USWX by starting your Amazon purchase here.